Time,TemperatureF,DewpointF,PressureIn,WindDirection,WindDirectionDegrees,WindSpeedMPH,WindSpeedGustMPH,Humidity,HourlyPrecipIn,Conditions,Clouds,dailyrainin,SoftwareType,DateUTC
2013-03-12 00:04:00,41.4,33.4,29.88,SSE,158,2.5,9.2,73,0.00,,,0.00,WUHU216HW,2013-03-12 04:04:00,
2013-03-12 00:09:00,41.4,33.4,29.88,SE,135,6.3,6.7,73,0.00,,,0.00,WUHU216HW,2013-03-12 04:09:00,
2013-03-12 00:14:00,41.4,33.4,29.87,South,180,5.1,6.9,73,0.00,,,0.00,WUHU216HW,2013-03-12 04:14:00,
2013-03-12 00:19:00,41.4,33.0,29.87,SW,225,3.8,6.9,72,0.00,,,0.00,WUHU216HW,2013-03-12 04:19:00,
2013-03-12 00:24:00,41.4,33.4,29.87,SSW,203,1.3,7.2,73,0.00,,,0.00,WUHU216HW,2013-03-12 04:24:00,
2013-03-12 00:29:00,41.0,33.0,29.87,South,180,5.6,7.2,73,0.00,,,0.00,WUHU216HW,2013-03-12 04:29:00,
2013-03-12 00:34:00,40.9,32.9,29.86,South,180,3.6,5.6,73,0.00,,,0.00,WUHU216HW,2013-03-12 04:34:00,
2013-03-12 00:39:00,41.0,32.7,29.86,SSE,158,4.5,4.9,72,0.00,,,0.00,WUHU216HW,2013-03-12 04:39:00,
2013-03-12 00:44:00,41.0,33.0,29.87,SSE,158,5.6,5.6,73,0.00,,,0.00,WUHU216HW,2013-03-12 04:44:00,
2013-03-12 00:49:00,41.0,32.7,29.87,SSW,203,2.0,9.8,72,0.00,,,0.00,WUHU216HW,2013-03-12 04:49:00,
2013-03-12 00:54:00,41.0,33.0,29.87,South,180,5.4,9.8,73,0.00,,,0.00,WUHU216HW,2013-03-12 04:54:00,
2013-03-12 00:59:00,41.0,32.7,29.88,SE,135,3.6,6.3,72,0.00,,,0.00,WUHU216HW,2013-03-12 04:59:00,
2013-03-12 01:04:00,41.0,33.0,29.88,SE,135,5.1,6.3,73,0.00,,,0.00,WUHU216HW,2013-03-12 05:04:00,
2013-03-12 01:09:00,40.9,32.5,29.88,ESE,113,4.7,5.8,72,0.00,,,0.00,WUHU216HW,2013-03-12 05:09:00,
2013-03-12 01:14:00,40.9,32.9,29.87,SE,135,3.1,5.8,73,0.00,,,0.00,WUHU216HW,2013-03-12 05:14:00,
2013-03-12 01:19:00,40.7,32.7,29.88,SW,225,1.1,5.1,73,0.00,,,0.00,WUHU216HW,2013-03-12 05:19:00,
2013-03-12 01:24:00,40.3,32.3,29.87,SSE,158,3.8,5.1,73,0.00,,,0.00,WUHU216HW,2013-03-12 05:24:00,
2013-03-12 01:29:00,40.3,32.0,29.87,SW,225,4.0,6.9,72,0.00,,,0.00,WUHU216HW,2013-03-12 05:29:00,
2013-03-12 01:34:00,40.9,32.2,29.86,South,180,3.1,6.9,71,0.00,,,0.00,WUHU216HW,2013-03-12 05:34:00,
2013-03-12 01:39:00,40.9,32.2,29.87,SW,225,1.1,4.7,71,0.00,,,0.00,WUHU216HW,2013-03-12 05:39:00,
2013-03-12 01:44:00,41.0,32.7,29.86,SSE,158,2.9,5.4,72,0.00,,,0.00,WUHU216HW,2013-03-12 05:44:00,
2013-03-12 01:49:00,40.9,32.5,29.86,SSW,203,1.1,5.4,72,0.00,,,0.00,WUHU216HW,2013-03-12 05:49:00,
2013-03-12 01:52:00,40.9,32.5,29.86,South,180,0.4,5.4,72,0.00,,,0.00,WUHU216HW,2013-03-12 05:52:00,
2013-03-12 01:57:00,40.9,32.2,29.86,South,180,1.6,5.1,71,0.00,,,0.00,WUHU216HW,2013-03-12 05:57:00,
2013-03-12 02:02:00,40.9,32.2,29.86,South,180,2.5,5.1,71,0.00,,,0.00,WUHU216HW,2013-03-12 06:02:00,
2013-03-12 02:09:00,41.0,32.4,29.86,South,180,5.4,5.4,71,0.00,,,0.00,WUHU216HW,2013-03-12 06:09:00,
2013-03-12 02:16:00,41.2,31.9,29.86,SSE,158,3.6,5.4,69,0.00,,,0.00,WUHU216HW,2013-03-12 06:16:00,
2013-03-12 02:23:00,41.4,32.4,29.86,SW,225,2.5,6.9,70,0.00,,,0.00,WUHU216HW,2013-03-12 06:23:00,
2013-03-12 02:29:00,41.4,32.8,29.85,SSE,158,3.4,6.9,71,0.00,,,0.00,WUHU216HW,2013-03-12 06:29:00,
2013-03-12 02:36:00,41.4,32.8,29.85,SW,225,1.3,5.6,71,0.00,,,0.00,WUHU216HW,2013-03-12 06:36:00,
2013-03-12 02:42:00,41.2,32.2,29.85,SE,135,1.1,5.6,70,0.00,,,0.00,WUHU216HW,2013-03-12 06:42:00,
2013-03-12 02:48:00,41.0,32.0,29.85,South,180,4.5,4.5,70,0.00,,,0.00,WUHU216HW,2013-03-12 06:48:00,
2013-03-12 02:55:00,41.4,32.4,29.84,SE,135,4.7,5.1,70,0.00,,,0.00,WUHU216HW,2013-03-12 06:55:00,
2013-03-12 03:00:00,41.4,32.1,29.84,South,180,4.5,4.7,69,0.00,,,0.00,WUHU216HW,2013-03-12 07:00:00,
2013-03-12 03:08:00,41.2,31.1,29.85,South,180,4.3,5.6,67,0.00,,,0.00,WUHU216HW,2013-03-12 07:08:00,
2013-03-12 03:14:00,41.2,32.2,29.84,SW,225,2.0,5.6,70,0.00,,,0.00,WUHU216HW,2013-03-12 07:14:00,
2013-03-12 03:21:00,40.9,31.5,29.85,SE,135,1.1,2.7,69,0.00,,,0.00,WUHU216HW,2013-03-12 07:21:00,
2013-03-12 03:27:00,40.7,32.1,29.84,SSW,203,0.7,2.2,71,0.00,,,0.00,WUHU216HW,2013-03-12 07:27:00,
2013-03-12 03:34:00,40.3,31.7,29.84,SSW,203,0.4,0.7,71,0.00,,,0.00,WUHU216HW,2013-03-12 07:34:00,
2013-03-12 03:40:00,40.1,31.5,29.84,SSW,203,0.2,0.7,71,0.00,,,0.00,WUHU216HW,2013-03-12 07:40:00,
2013-03-12 03:46:00,40.0,31.3,29.83,SSE,158,0.9,2.0,71,0.00,,,0.00,WUHU216HW,2013-03-12 07:46:00,
2013-03-12 03:53:00,39.4,30.4,29.84,SE,135,1.1,2.0,70,0.00,,,0.00,WUHU216HW,2013-03-12 07:53:00,
2013-03-12 03:59:00,39.2,29.9,29.84,SW,225,0.0,2.5,69,0.00,,,0.00,WUHU216HW,2013-03-12 07:59:00,
2013-03-12 04:05:00,39.2,29.9,29.83,SW,225,0.4,2.5,69,0.00,,,0.00,WUHU216HW,2013-03-12 08:05:00,
2013-03-12 04:12:00,39.2,29.9,29.83,SW,225,0.9,1.1,69,0.00,,,0.00,WUHU216HW,2013-03-12 08:12:00,
2013-03-12 04:19:00,39.4,29.7,29.83,SSW,203,0.4,1.8,68,0.00,,,0.00,WUHU216HW,2013-03-12 08:19:00,
2013-03-12 04:25:00,39.8,27.7,29.83,SSE,158,0.2,2.9,62,0.00,,,0.00,WUHU216HW,2013-03-12 08:25:00,
2013-03-12 04:32:00,40.0,28.7,29.82,NNW,338,1.8,1.8,64,0.00,,,0.00,WUHU216HW,2013-03-12 08:32:00,
2013-03-12 04:38:00,40.0,27.5,29.82,SSE,158,1.6,5.1,61,0.00,,,0.00,WUHU216HW,2013-03-12 08:38:00,
2013-03-12 04:47:00,40.0,28.4,29.82,SSE,158,1.1,2.5,63,0.00,,,0.00,WUHU216HW,2013-03-12 08:47:00,
2013-03-12 04:50:00,40.0,28.4,29.82,SSE,158,0.4,2.7,63,0.00,,,0.00,WUHU216HW,2013-03-12 08:50:00,
2013-03-12 04:56:00,40.0,28.4,29.81,South,180,0.7,2.0,63,0.00,,,0.00,WUHU216HW,2013-03-12 08:56:00,
2013-03-12 05:02:00,40.0,27.2,29.81,SSW,203,0.9,2.0,60,0.01,,,0.00,WUHU216HW,2013-03-12 09:02:00,
2013-03-12 05:08:00,39.8,23.0,29.82,SSE,158,2.2,2.2,51,0.02,,,0.01,WUHU216HW,2013-03-12 09:08:00,
2013-03-12 05:15:00,40.0,26.7,29.82,SSW,203,0.7,2.2,59,0.02,,,0.02,WUHU216HW,2013-03-12 09:15:00,
2013-03-12 05:22:00,39.4,26.6,29.82,SW,225,0.9,1.3,60,0.03,,,0.03,WUHU216HW,2013-03-12 09:22:00,
2013-03-12 05:29:00,39.2,24.8,29.82,SW,225,0.2,2.5,56,0.04,,,0.04,WUHU216HW,2013-03-12 09:29:00,
2013-03-12 05:35:00,39.4,24.5,29.82,SW,225,0.2,2.5,55,0.04,,,0.04,WUHU216HW,2013-03-12 09:35:00,
2013-03-12 05:42:00,39.4,24.9,29.82,SW,225,0.4,1.1,56,0.04,,,0.04,WUHU216HW,2013-03-12 09:42:00,
2013-03-12 05:48:00,39.2,25.2,29.82,SW,225,0.4,1.1,57,0.04,,,0.04,WUHU216HW,2013-03-12 09:48:00,
2013-03-12 05:54:00,39.1,25.0,29.82,SW,225,0.4,0.4,57,0.04,,,0.04,WUHU216HW,2013-03-12 09:54:00,
2013-03-12 06:01:00,38.5,24.5,29.82,SW,225,0.0,1.1,57,0.04,,,0.05,WUHU216HW,2013-03-12 10:01:00,
2013-03-12 06:07:00,38.3,24.4,29.82,SSW,203,0.2,0.7,57,0.04,,,0.05,WUHU216HW,2013-03-12 10:07:00,
2013-03-12 06:14:00,38.3,24.0,29.82,SW,225,0.0,0.9,56,0.03,,,0.05,WUHU216HW,2013-03-12 10:14:00,
2013-03-12 06:20:00,38.3,23.0,29.82,SW,225,0.7,0.9,54,0.03,,,0.06,WUHU216HW,2013-03-12 10:20:00,
2013-03-12 06:27:00,38.5,22.0,29.82,SW,225,0.2,1.3,51,0.02,,,0.06,WUHU216HW,2013-03-12 10:27:00,
2013-03-12 06:33:00,38.5,22.0,29.82,SSE,158,0.2,0.7,51,0.02,,,0.06,WUHU216HW,2013-03-12 10:33:00,
2013-03-12 06:40:00,38.3,22.2,29.81,SSE,158,0.9,1.1,52,0.02,,,0.06,WUHU216HW,2013-03-12 10:40:00,
2013-03-12 06:46:00,38.2,21.6,29.81,SSW,203,0.4,1.1,51,0.03,,,0.06,WUHU216HW,2013-03-12 10:46:00,
2013-03-12 06:52:00,38.2,21.6,29.81,WSW,248,1.1,1.6,51,0.03,,,0.07,WUHU216HW,2013-03-12 10:52:00,
2013-03-12 06:59:00,38.0,21.0,29.81,SSE,158,1.1,1.3,50,0.03,,,0.08,WUHU216HW,2013-03-12 10:59:00,
2013-03-12 07:05:00,37.8,21.2,29.81,SSE,158,0.2,2.5,51,0.03,,,0.08,WUHU216HW,2013-03-12 11:05:00,
2013-03-12 07:12:00,37.8,20.4,29.81,SW,225,0.9,0.9,49,0.03,,,0.08,WUHU216HW,2013-03-12 11:12:00,
2013-03-12 07:18:00,37.8,20.4,29.80,SE,135,0.2,1.1,49,0.02,,,0.08,WUHU216HW,2013-03-12 11:18:00,
2013-03-12 07:25:00,37.6,19.6,29.80,SSW,203,0.7,1.6,48,0.02,,,0.08,WUHU216HW,2013-03-12 11:25:00,
2013-03-12 07:31:00,37.8,19.8,29.80,SW,225,0.0,1.6,48,0.03,,,0.09,WUHU216HW,2013-03-12 11:31:00,
2013-03-12 07:38:00,37.8,17.7,29.80,SW,225,0.2,1.1,44,0.03,,,0.09,WUHU216HW,2013-03-12 11:38:00,
2013-03-12 07:44:00,38.2,15.3,29.80,SW,225,0.9,1.1,39,0.02,,,0.09,WUHU216HW,2013-03-12 11:44:00,
2013-03-12 07:51:00,38.3,16.1,29.79,SW,225,0.4,0.9,40,0.02,,,0.09,WUHU216HW,2013-03-12 11:51:00,
2013-03-12 07:57:00,38.3,13.5,29.79,SW,225,0.7,0.7,36,0.01,,,0.09,WUHU216HW,2013-03-12 11:57:00,
2013-03-12 08:04:00,38.7,14.5,29.79,SW,225,0.4,1.1,37,0.01,,,0.09,WUHU216HW,2013-03-12 12:04:00,
2013-03-12 08:10:00,38.7,13.2,29.79,SW,225,0.2,1.1,35,0.01,,,0.09,WUHU216HW,2013-03-12 12:10:00,
2013-03-12 08:16:00,38.9,12.1,29.79,SW,225,0.2,0.9,33,0.01,,,0.09,WUHU216HW,2013-03-12 12:16:00,
2013-03-12 08:23:00,39.1,14.1,29.79,SW,225,0.0,0.4,36,0.01,,,0.09,WUHU216HW,2013-03-12 12:23:00,
2013-03-12 08:29:00,38.9,14.1,29.79,ESE,113,0.2,0.2,36,0.00,,,0.09,WUHU216HW,2013-03-12 12:29:00,
2013-03-12 08:36:00,38.9,15.3,29.79,SSW,203,0.0,0.4,38,0.00,,,0.09,WUHU216HW,2013-03-12 12:36:00,
2013-03-12 08:42:00,38.7,15.1,29.79,SE,135,0.7,0.9,38,0.00,,,0.09,WUHU216HW,2013-03-12 12:42:00,
2013-03-12 08:49:00,38.5,14.9,29.78,WSW,248,0.0,1.1,38,0.00,,,0.09,WUHU216HW,2013-03-12 12:49:00,
2013-03-12 08:55:00,38.5,14.9,29.78,WSW,248,0.4,1.3,38,0.00,,,0.09,WUHU216HW,2013-03-12 12:55:00,
2013-03-12 09:01:00,38.7,13.9,29.78,SW,225,0.0,0.9,36,0.00,,,0.09,WUHU216HW,2013-03-12 13:01:00,
2013-03-12 09:07:00,38.7,13.9,29.78,SE,135,2.2,2.2,36,0.00,,,0.09,WUHU216HW,2013-03-12 13:07:00,
2013-03-12 09:14:00,38.5,9.8,29.78,West,270,0.0,2.2,30,0.00,,,0.09,WUHU216HW,2013-03-12 13:14:00,
2013-03-12 09:21:00,38.5,10.4,29.78,West,270,0.0,1.1,31,0.01,,,0.11,WUHU216HW,2013-03-12 13:21:00,
2013-03-12 09:27:00,38.7,10.6,29.77,SE,135,1.1,1.1,31,0.01,,,0.11,WUHU216HW,2013-03-12 13:27:00,
2013-03-12 09:34:00,38.5,13.1,29.77,SSW,203,0.0,1.1,35,0.01,,,0.11,WUHU216HW,2013-03-12 13:34:00,
2013-03-12 09:40:00,38.5,13.1,29.77,SW,225,0.4,0.4,35,0.01,,,0.11,WUHU216HW,2013-03-12 13:40:00,
2013-03-12 09:47:00,38.5,13.7,29.77,SW,225,0.0,1.3,36,0.01,,,0.11,WUHU216HW,2013-03-12 13:47:00,
2013-03-12 09:53:00,38.7,11.3,29.77,SW,225,0.0,1.3,32,0.01,,,0.11,WUHU216HW,2013-03-12 13:53:00,
2013-03-12 09:59:00,39.1,8.5,29.77,WNW,293,0.4,1.1,28,0.01,,,0.11,WUHU216HW,2013-03-12 13:59:00,
2013-03-12 10:05:00,39.1,9.4,29.77,West,270,0.4,1.1,29,0.01,,,0.11,WUHU216HW,2013-03-12 14:05:00,
2013-03-12 10:13:00,39.4,9.7,29.77,West,270,0.2,1.1,29,0.01,,,0.11,WUHU216HW,2013-03-12 14:13:00,
2013-03-12 10:19:00,39.2,5.9,29.77,NW,315,0.4,1.3,25,0.00,,,0.11,WUHU216HW,2013-03-12 14:19:00,
2013-03-12 10:25:00,39.4,-2.7,29.76,NNW,338,0.4,1.6,17,0.01,,,0.11,WUHU216HW,2013-03-12 14:25:00,
2013-03-12 10:32:00,39.6,-1.1,29.76,NW,315,1.1,1.1,18,0.02,,,0.13,WUHU216HW,2013-03-12 14:32:00,
2013-03-12 10:38:00,40.0,-3.6,29.76,NW,315,0.0,1.1,16,0.02,,,0.13,WUHU216HW,2013-03-12 14:38:00,
2013-03-12 10:45:00,39.8,-3.8,29.75,NNW,338,0.9,1.1,16,0.02,,,0.13,WUHU216HW,2013-03-12 14:45:00,
2013-03-12 10:51:00,40.0,-0.8,29.75,NE,45,0.0,0.9,18,0.02,,,0.13,WUHU216HW,2013-03-12 14:51:00,
2013-03-12 10:57:00,40.0,2.1,29.76,SE,135,0.2,1.1,20,0.02,,,0.13,WUHU216HW,2013-03-12 14:57:00,
2013-03-12 11:04:00,40.1,4.1,29.75,SW,225,0.0,1.1,22,0.02,,,0.13,WUHU216HW,2013-03-12 15:04:00,
2013-03-12 11:11:00,40.3,-0.4,29.75,NNW,338,1.3,1.3,18,0.02,,,0.13,WUHU216HW,2013-03-12 15:11:00,
2013-03-12 11:17:00,40.1,-2.1,29.75,North,0,0.0,1.3,17,0.01,,,0.13,WUHU216HW,2013-03-12 15:17:00,
2013-03-12 11:23:00,40.0,2.1,29.74,ENE,68,0.0,1.1,20,0.00,,,0.13,WUHU216HW,2013-03-12 15:23:00,
2013-03-12 11:33:00,40.3,-3.3,29.74,WNW,293,1.6,1.6,16,0.00,,,0.13,WUHU216HW,2013-03-12 15:33:00,
2013-03-12 11:36:00,41.0,-2.7,29.74,NNW,338,0.4,1.6,16,0.00,,,0.13,WUHU216HW,2013-03-12 15:36:00,
2013-03-12 11:42:00,41.4,-3.9,29.74,ESE,113,3.4,3.4,15,0.00,,,0.13,WUHU216HW,2013-03-12 15:42:00,
2013-03-12 11:48:00,42.1,-7.6,29.74,SE,135,0.4,3.4,12,0.00,,,0.13,WUHU216HW,2013-03-12 15:48:00,
2013-03-12 11:55:00,42.7,-7.3,29.74,SW,225,0.7,1.1,12,0.00,,,0.13,WUHU216HW,2013-03-12 15:55:00,
2013-03-12 12:02:00,42.7,-3.0,29.73,SW,225,0.4,2.9,15,0.00,,,0.13,WUHU216HW,2013-03-12 16:02:00,
2013-03-12 12:08:00,42.7,-1.4,29.73,ESE,113,1.6,2.9,16,0.01,,,0.13,WUHU216HW,2013-03-12 16:08:00,
2013-03-12 12:15:00,42.8,0.1,29.73,SW,225,0.4,1.6,17,0.02,,,0.13,WUHU216HW,2013-03-12 16:15:00,
2013-03-12 12:21:00,42.7,1.4,29.72,SE,135,0.9,2.0,18,0.02,,,0.15,WUHU216HW,2013-03-12 16:21:00,
2013-03-12 12:27:00,42.8,4.5,29.72,WSW,248,0.0,1.3,20,0.02,,,0.15,WUHU216HW,2013-03-12 16:27:00,
2013-03-12 12:34:00,43.0,1.7,29.72,SSE,158,0.4,1.8,18,0.03,,,0.15,WUHU216HW,2013-03-12 16:34:00,
2013-03-12 12:40:00,43.2,6.7,29.72,SW,225,0.0,1.8,22,0.04,,,0.16,WUHU216HW,2013-03-12 16:40:00,
2013-03-12 12:47:00,43.0,9.2,29.72,SW,225,0.9,1.1,25,0.04,,,0.16,WUHU216HW,2013-03-12 16:47:00,
2013-03-12 12:53:00,43.2,6.7,29.71,ESE,113,0.2,0.9,22,0.04,,,0.16,WUHU216HW,2013-03-12 16:53:00,
2013-03-12 13:00:00,43.6,8.7,29.71,SW,225,0.2,0.7,24,0.04,,,0.16,WUHU216HW,2013-03-12 17:00:00,
2013-03-12 13:06:00,43.6,6.9,29.71,South,180,2.2,3.8,22,0.03,,,0.16,WUHU216HW,2013-03-12 17:06:00,
2013-03-12 13:13:00,43.9,10.0,29.70,SSW,203,0.4,3.8,25,0.03,,,0.18,WUHU216HW,2013-03-12 17:13:00,
2013-03-12 13:19:00,43.9,11.8,29.70,West,270,0.9,1.3,27,0.03,,,0.18,WUHU216HW,2013-03-12 17:19:00,
2013-03-12 13:26:00,44.3,12.1,29.70,South,180,0.4,1.1,27,0.03,,,0.18,WUHU216HW,2013-03-12 17:26:00,
2013-03-12 13:32:00,44.3,14.8,29.70,SW,225,0.0,1.1,30,0.03,,,0.18,WUHU216HW,2013-03-12 17:32:00,
2013-03-12 13:38:00,44.3,16.8,29.70,SSW,203,0.7,0.7,33,0.02,,,0.18,WUHU216HW,2013-03-12 17:38:00,
2013-03-12 13:45:00,44.3,18.1,29.69,SSW,203,0.2,0.7,35,0.02,,,0.18,WUHU216HW,2013-03-12 17:45:00,
2013-03-12 13:51:00,44.1,19.3,29.69,SSW,203,0.0,0.4,37,0.03,,,0.20,WUHU216HW,2013-03-12 17:51:00,
2013-03-12 13:57:00,43.9,18.5,29.69,SSW,203,0.7,0.7,36,0.04,,,0.20,WUHU216HW,2013-03-12 17:57:00,
2013-03-12 14:04:00,43.9,19.8,29.68,SSW,203,0.0,0.7,38,0.04,,,0.20,WUHU216HW,2013-03-12 18:04:00,
2013-03-12 14:14:00,43.2,20.5,29.68,North,0,0.0,0.2,40,0.03,,,0.20,WUHU216HW,2013-03-12 18:14:00,
2013-03-12 14:16:00,42.8,18.2,29.68,NNW,338,0.0,0.4,37,0.04,,,0.22,WUHU216HW,2013-03-12 18:16:00,
2013-03-12 14:23:00,42.8,15.5,29.67,NNW,338,0.7,1.6,33,0.05,,,0.22,WUHU216HW,2013-03-12 18:23:00,
2013-03-12 14:29:00,42.7,18.0,29.67,NNW,338,0.2,0.7,37,0.04,,,0.22,WUHU216HW,2013-03-12 18:29:00,
2013-03-12 14:36:00,42.1,12.1,29.67,NNW,338,0.4,1.3,29,0.04,,,0.22,WUHU216HW,2013-03-12 18:36:00,
2013-03-12 14:42:00,41.9,11.9,29.66,North,0,1.8,1.8,29,0.04,,,0.22,WUHU216HW,2013-03-12 18:42:00,
2013-03-12 14:48:00,41.9,7.4,29.66,NNW,338,1.1,1.8,24,0.04,,,0.24,WUHU216HW,2013-03-12 18:48:00,
2013-03-12 14:55:00,41.9,8.3,29.66,NNW,338,0.4,1.1,25,0.04,,,0.25,WUHU216HW,2013-03-12 18:55:00,
2013-03-12 15:02:00,41.8,11.7,29.65,NNW,338,0.4,0.4,29,0.04,,,0.25,WUHU216HW,2013-03-12 19:02:00,
2013-03-12 15:08:00,41.6,12.5,29.65,NNW,338,0.0,0.4,30,0.04,,,0.25,WUHU216HW,2013-03-12 19:08:00,
2013-03-12 15:15:00,41.4,13.0,29.64,NNW,338,0.4,1.1,31,0.04,,,0.26,WUHU216HW,2013-03-12 19:15:00,
2013-03-12 15:21:00,41.0,9.4,29.64,NNW,338,0.0,1.1,27,0.04,,,0.27,WUHU216HW,2013-03-12 19:21:00,
2013-03-12 15:27:00,41.0,6.7,29.63,NNW,338,0.0,1.1,24,0.04,,,0.27,WUHU216HW,2013-03-12 19:27:00,
2013-03-12 15:34:00,41.2,3.3,29.63,NNW,338,0.4,1.1,20,0.05,,,0.28,WUHU216HW,2013-03-12 19:34:00,
2013-03-12 15:40:00,41.0,-1.3,29.63,NNE,23,0.4,1.1,17,0.05,,,0.29,WUHU216HW,2013-03-12 19:40:00,
2013-03-12 15:46:00,41.2,0.4,29.62,NNE,23,0.0,0.7,18,0.05,,,0.29,WUHU216HW,2013-03-12 19:46:00,
2013-03-12 15:53:00,41.2,3.3,29.62,NNW,338,0.0,0.4,20,0.05,,,0.30,WUHU216HW,2013-03-12 19:53:00,
2013-03-12 16:00:00,41.4,4.2,29.62,NW,315,0.4,0.9,21,0.06,,,0.31,WUHU216HW,2013-03-12 20:00:00,
2013-03-12 16:06:00,41.6,3.5,29.63,NW,315,0.4,0.9,20,0.06,,,0.31,WUHU216HW,2013-03-12 20:06:00,
2013-03-12 16:13:00,41.4,6.0,29.63,SSE,158,0.0,1.6,23,0.06,,,0.32,WUHU216HW,2013-03-12 20:13:00,
2013-03-12 16:19:00,41.2,0.4,29.63,NNW,338,1.1,2.0,18,0.06,,,0.32,WUHU216HW,2013-03-12 20:19:00,
2013-03-12 16:25:00,41.0,-1.3,29.62,North,0,0.9,1.3,17,0.06,,,0.33,WUHU216HW,2013-03-12 20:25:00,
2013-03-12 16:32:00,41.0,-2.7,29.62,North,0,0.7,1.1,16,0.04,,,0.33,WUHU216HW,2013-03-12 20:32:00,
2013-03-12 16:38:00,40.9,-1.4,29.62,North,0,0.9,1.1,17,0.05,,,0.34,WUHU216HW,2013-03-12 20:38:00,
2013-03-12 16:45:00,40.7,-3.0,29.62,North,0,0.4,1.8,16,0.06,,,0.35,WUHU216HW,2013-03-12 20:45:00,
2013-03-12 16:51:00,40.7,-3.0,29.61,NNW,338,1.6,1.6,16,0.07,,,0.36,WUHU216HW,2013-03-12 20:51:00,
2013-03-12 16:57:00,40.7,-10.2,29.61,NNW,338,2.2,2.2,11,0.06,,,0.37,WUHU216HW,2013-03-12 20:57:00,
2013-03-12 17:04:00,40.3,-9.1,29.60,NNW,338,0.4,2.2,12,0.07,,,0.38,WUHU216HW,2013-03-12 21:04:00,
2013-03-12 17:11:00,40.3,-4.8,29.61,NNW,338,0.4,1.8,15,0.07,,,0.39,WUHU216HW,2013-03-12 21:11:00,
2013-03-12 17:17:00,40.0,-3.6,29.60,NNW,338,0.2,1.8,16,0.07,,,0.40,WUHU216HW,2013-03-12 21:17:00,
2013-03-12 17:24:00,39.8,-3.8,29.60,ESE,113,0.2,1.1,16,0.09,,,0.42,WUHU216HW,2013-03-12 21:24:00,
2013-03-12 17:30:00,39.6,-2.5,29.60,SSW,203,0.0,1.1,17,0.11,,,0.44,WUHU216HW,2013-03-12 21:30:00,
2013-03-12 17:36:00,39.6,-11.1,29.59,North,0,1.8,2.2,11,0.10,,,0.45,WUHU216HW,2013-03-12 21:36:00,
2013-03-12 17:43:00,39.6,-9.6,29.59,ESE,113,0.4,1.8,12,0.12,,,0.47,WUHU216HW,2013-03-12 21:43:00,
2013-03-12 17:49:00,39.4,-8.4,29.58,WNW,293,2.0,2.0,13,0.12,,,0.49,WUHU216HW,2013-03-12 21:49:00,
2013-03-12 17:55:00,39.6,-11.1,29.58,NNW,338,0.0,2.0,11,0.14,,,0.50,WUHU216HW,2013-03-12 21:55:00,
2013-03-12 18:03:00,39.6,-11.1,29.57,NW,315,0.9,1.8,11,0.15,,,0.52,WUHU216HW,2013-03-12 22:03:00,
2013-03-12 18:09:00,39.6,-12.5,29.57,NW,315,1.3,1.8,10,0.16,,,0.54,WUHU216HW,2013-03-12 22:09:00,
2013-03-12 18:16:00,39.8,-12.3,29.57,North,0,0.7,1.3,10,0.15,,,0.56,WUHU216HW,2013-03-12 22:16:00,
2013-03-12 18:22:00,39.4,-12.6,29.55,North,0,1.6,1.6,9,0.15,,,0.57,WUHU216HW,2013-03-12 22:22:00,
2013-03-12 18:28:00,39.2,-12.8,29.55,NNW,338,0.4,1.6,9,0.12,,,0.57,WUHU216HW,2013-03-12 22:28:00,
2013-03-12 18:35:00,39.8,-12.3,29.55,North,0,0.2,2.2,9,0.12,,,0.57,WUHU216HW,2013-03-12 22:35:00,
2013-03-12 18:41:00,39.4,-12.6,29.55,SSW,203,0.2,1.8,9,0.10,,,0.57,WUHU216HW,2013-03-12 22:41:00,
2013-03-12 18:48:00,39.2,-12.8,29.55,NNW,338,1.1,1.8,9,0.09,,,0.58,WUHU216HW,2013-03-12 22:48:00,
2013-03-12 18:54:00,39.4,-12.6,29.55,NNE,23,4.3,4.3,9,0.08,,,0.59,WUHU216HW,2013-03-12 22:54:00,
2013-03-12 19:01:00,40.3,-11.9,29.56,SSE,158,1.3,4.3,9,0.06,,,0.59,WUHU216HW,2013-03-12 23:01:00,
2013-03-12 19:07:00,39.6,-12.5,29.56,SE,135,1.1,2.2,9,0.06,,,0.60,WUHU216HW,2013-03-12 23:07:00,
2013-03-12 19:14:00,39.2,-12.8,29.56,SSE,158,0.4,1.1,9,0.05,,,0.61,WUHU216HW,2013-03-12 23:14:00,
2013-03-12 19:20:00,38.9,-13.0,29.56,NNE,23,0.0,0.4,10,0.04,,,0.61,WUHU216HW,2013-03-12 23:20:00,
2013-03-12 19:26:00,38.5,-13.3,29.55,NNE,23,0.0,0.4,10,0.04,,,0.61,WUHU216HW,2013-03-12 23:26:00,
2013-03-12 19:33:00,38.5,-13.3,29.55,North,0,0.0,1.1,9,0.04,,,0.61,WUHU216HW,2013-03-12 23:33:00,
2013-03-12 19:39:00,38.7,-13.2,29.55,North,0,1.1,1.1,9,0.04,,,0.61,WUHU216HW,2013-03-12 23:39:00,
2013-03-12 19:46:00,38.3,-13.5,29.55,NNW,338,1.1,1.1,9,0.03,,,0.61,WUHU216HW,2013-03-12 23:46:00,
2013-03-12 19:52:00,38.3,-13.5,29.55,NNW,338,0.9,1.1,9,0.02,,,0.61,WUHU216HW,2013-03-12 23:52:00,
2013-03-12 19:58:00,38.3,-13.5,29.55,NNW,338,0.0,0.9,9,0.02,,,0.61,WUHU216HW,2013-03-12 23:58:00,
2013-03-12 20:05:00,38.0,-13.8,29.55,NNW,338,0.0,0.9,10,0.01,,,0.61,WUHU216HW,2013-03-13 00:05:00,
2013-03-12 20:12:00,37.8,-13.9,29.55,NNW,338,0.0,0.0,10,0.00,,,0.61,WUHU216HW,2013-03-13 00:12:00,
2013-03-12 20:18:00,37.8,-13.9,29.55,NNW,338,0.0,0.7,10,0.01,,,0.62,WUHU216HW,2013-03-13 00:18:00,
2013-03-12 20:25:00,37.8,-13.9,29.55,North,0,1.1,1.6,9,0.01,,,0.62,WUHU216HW,2013-03-13 00:25:00,
2013-03-12 20:31:00,37.6,-14.0,29.55,North,0,1.1,1.6,9,0.02,,,0.63,WUHU216HW,2013-03-13 00:31:00,
2013-03-12 20:37:00,37.3,-14.4,29.55,NNW,338,1.6,1.6,10,0.02,,,0.63,WUHU216HW,2013-03-13 00:37:00,
2013-03-12 20:44:00,37.4,-14.2,29.55,NNW,338,1.1,1.8,9,0.02,,,0.63,WUHU216HW,2013-03-13 00:44:00,
2013-03-12 20:50:00,37.3,-14.4,29.55,ESE,113,0.0,1.1,10,0.04,,,0.65,WUHU216HW,2013-03-13 00:50:00,
2013-03-12 20:56:00,37.1,-14.5,29.55,ESE,113,0.0,0.7,10,0.04,,,0.65,WUHU216HW,2013-03-13 00:56:00,
2013-03-12 21:04:00,36.7,-14.7,29.55,North,0,0.4,0.7,10,0.05,,,0.65,WUHU216HW,2013-03-13 01:04:00,
2013-03-12 21:10:00,36.5,-14.9,29.55,North,0,0.2,1.1,10,0.05,,,0.66,WUHU216HW,2013-03-13 01:10:00,
2013-03-12 21:16:00,37.1,-14.5,29.55,North,0,1.1,1.6,10,0.04,,,0.66,WUHU216HW,2013-03-13 01:16:00,
2013-03-12 21:23:00,36.9,-14.7,29.55,SSE,158,0.7,1.6,10,0.05,,,0.67,WUHU216HW,2013-03-13 01:23:00,
2013-03-12 21:29:00,36.5,-14.9,29.56,SSE,158,0.0,1.6,10,0.04,,,0.67,WUHU216HW,2013-03-13 01:29:00,
2013-03-12 21:36:00,36.4,-15.1,29.56,North,0,0.0,0.9,10,0.04,,,0.67,WUHU216HW,2013-03-13 01:36:00,
2013-03-12 21:42:00,36.4,-13.7,29.57,SSE,158,1.1,1.1,11,0.04,,,0.67,WUHU216HW,2013-03-13 01:42:00,
2013-03-12 21:48:00,36.4,-15.1,29.58,NE,45,0.4,2.2,10,0.02,,,0.67,WUHU216HW,2013-03-13 01:48:00,
2013-03-12 21:55:00,36.5,-14.9,29.58,West,270,0.0,1.3,10,0.02,,,0.67,WUHU216HW,2013-03-13 01:55:00,
2013-03-12 22:02:00,36.7,-14.7,29.59,NNE,23,0.2,1.1,10,0.01,,,0.67,WUHU216HW,2013-03-13 02:02:00,
2013-03-12 22:08:00,36.5,-14.9,29.60,NNW,338,0.0,1.3,10,0.01,,,0.67,WUHU216HW,2013-03-13 02:08:00,
2013-03-12 22:15:00,36.7,-14.7,29.60,NNW,338,0.0,1.3,10,0.01,,,0.67,WUHU216HW,2013-03-13 02:15:00,
2013-03-12 22:21:00,36.7,-14.7,29.61,NNW,338,0.4,0.7,10,0.00,,,0.67,WUHU216HW,2013-03-13 02:21:00,
2013-03-12 22:27:00,37.1,-14.5,29.62,NNW,338,0.0,0.7,10,0.00,,,0.67,WUHU216HW,2013-03-13 02:27:00,
2013-03-12 22:34:00,36.9,-14.7,29.62,NNW,338,0.0,0.7,10,0.00,,,0.67,WUHU216HW,2013-03-13 02:34:00,
2013-03-12 22:40:00,36.7,-14.7,29.63,NW,315,0.9,0.9,10,0.00,,,0.67,WUHU216HW,2013-03-13 02:40:00,
2013-03-12 22:47:00,37.8,-13.9,29.63,NW,315,2.7,2.7,9,0.00,,,0.67,WUHU216HW,2013-03-13 02:47:00,
2013-03-12 22:53:00,38.2,-13.7,29.63,NW,315,0.0,2.7,9,0.00,,,0.67,WUHU216HW,2013-03-13 02:53:00,
2013-03-12 23:00:00,37.6,-14.0,29.64,NW,315,0.7,1.1,9,0.00,,,0.67,WUHU216HW,2013-03-13 03:00:00,
2013-03-12 23:06:00,37.1,-14.5,29.64,NW,315,0.0,1.1,10,0.00,,,0.67,WUHU216HW,2013-03-13 03:06:00,
2013-03-12 23:13:00,36.4,-15.1,29.64,NNW,338,1.1,1.1,10,0.00,,,0.67,WUHU216HW,2013-03-13 03:13:00,
2013-03-12 23:19:00,36.4,-15.1,29.65,NNW,338,0.0,1.1,10,0.00,,,0.67,WUHU216HW,2013-03-13 03:19:00,
2013-03-12 23:25:00,36.4,-15.1,29.65,NNW,338,0.0,0.0,10,0.00,,,0.67,WUHU216HW,2013-03-13 03:25:00,
2013-03-12 23:32:00,36.2,-13.8,29.66,NNW,338,0.4,0.4,11,0.00,,,0.67,WUHU216HW,2013-03-13 03:32:00,
2013-03-12 23:38:00,36.2,-15.2,29.66,NNW,338,0.0,1.1,10,0.00,,,0.67,WUHU216HW,2013-03-13 03:38:00,
2013-03-12 23:45:00,36.2,-15.2,29.66,NNW,338,0.4,0.4,10,0.00,,,0.67,WUHU216HW,2013-03-13 03:45:00,
2013-03-12 23:51:00,36.0,-15.4,29.66,NNW,338,0.0,0.4,10,0.00,,,0.67,WUHU216HW,2013-03-13 03:51:00,
2013-03-12 23:57:00,35.8,-14.1,29.66,NNW,338,0.0,0.2,11,0.00,,,0.67,WUHU216HW,2013-03-13 03:57:00,